Terminal Aerodrome Forecast
Issued by NWS

Home | Current Version | Previous Version | Text Only | Print | Product List | Glossary On
Versions: 1 2 3 4 5 6 7 8 9 10 11 12 13 14 15 16 17 18 19 20
567
FTUS46 KSTO 222328
TAFRBL
TAF
KRBL 222328Z 2300/2324 32005KT P6SM BKN250
     FM230900 VRB04KT P6SM VCSH OVC100
     FM231100 VRB04KT P6SM -RA OVC050
      TEMPO 2314/2318 3SM -RA OVC025
     FM232100 VRB04KT P6SM SCT025 BKN050=

USA.gov is the U.S. government's official web portal to all federal, state and local government web resources and services.